createdAt,value
2018-01-28T00:00:31.357Z,2.00
2018-01-28T00:02:58.898Z,2.02
2018-01-28T00:05:26.461Z,2.04
2018-01-28T00:07:53.997Z,2.17
2018-01-28T00:10:21.530Z,2.18
2018-01-28T00:12:49.227Z,2.05
2018-01-28T00:15:16.753Z,2.16
2018-01-28T00:17:44.291Z,1.99
2018-01-28T00:20:11.812Z,1.99
2018-01-28T00:22:39.377Z,1.83
2018-01-28T00:25:06.937Z,1.62
2018-01-28T00:27:34.450Z,1.46
2018-01-28T00:30:02.003Z,1.50
2018-01-28T00:32:29.530Z,1.64
2018-01-28T00:34:57.057Z,1.48
2018-01-28T00:37:24.555Z,1.50
2018-01-28T00:39:52.110Z,1.59
2018-01-28T00:42:19.655Z,1.39
2018-01-28T00:44:47.182Z,1.28
2018-01-28T00:47:14.715Z,1.24
2018-01-28T00:49:42.228Z,1.08
2018-01-28T00:52:09.762Z,1.20
2018-01-28T00:54:37.262Z,1.20
2018-01-28T00:57:04.796Z,1.13
2018-01-28T00:59:32.310Z,1.05
2018-01-28T01:01:59.833Z,0.94
2018-01-28T01:04:27.352Z,0.84
2018-01-28T01:06:54.896Z,0.77
2018-01-28T01:09:22.427Z,0.77
2018-01-28T01:11:49.945Z,0.87
2018-01-28T01:14:17.476Z,0.88
2018-01-28T01:16:45.000Z,0.85
2018-01-28T01:19:12.526Z,0.94
2018-01-28T01:21:40.077Z,0.75
2018-01-28T01:24:07.609Z,0.65
2018-01-28T01:26:35.133Z,0.57
2018-01-28T01:29:02.651Z,0.64
2018-01-28T01:31:30.166Z,0.57
2018-01-28T01:33:57.693Z,0.56
2018-01-28T01:36:25.212Z,0.61
2018-01-28T01:38:52.737Z,0.65
2018-01-28T01:41:20.241Z,0.65
2018-01-28T01:43:47.772Z,0.63
2018-01-28T01:46:15.291Z,0.66
2018-01-28T01:48:42.814Z,0.67
2018-01-28T01:51:10.326Z,0.69
2018-01-28T01:53:37.861Z,0.60
2018-01-28T01:56:05.372Z,0.60
2018-01-28T01:58:32.947Z,0.70
2018-01-28T02:01:00.481Z,0.74
2018-01-28T02:03:28.031Z,0.79
2018-01-28T02:05:55.552Z,0.82
2018-01-28T02:08:23.096Z,0.73
2018-01-28T02:10:50.618Z,0.64
2018-01-28T02:13:18.130Z,0.57
2018-01-28T02:15:45.669Z,0.70
2018-01-28T02:18:13.238Z,0.87
2018-01-28T02:20:40.756Z,0.72
2018-01-28T02:23:08.288Z,0.81
2018-01-28T02:25:35.828Z,0.82
2018-01-28T02:28:03.332Z,0.92
2018-01-28T02:30:30.851Z,0.87
2018-01-28T02:32:58.382Z,0.85
2018-01-28T02:35:25.892Z,0.83
2018-01-28T02:37:53.535Z,0.80
2018-01-28T02:40:21.069Z,0.97
2018-01-28T02:42:48.760Z,0.80
2018-01-28T02:45:16.276Z,0.64
2018-01-28T02:47:43.776Z,0.74
2018-01-28T02:50:11.296Z,0.71
2018-01-28T02:52:38.816Z,1.00
2018-01-28T02:55:06.331Z,1.01
2018-01-28T02:57:33.851Z,1.17
2018-01-28T03:00:01.382Z,1.39
2018-01-28T03:02:28.918Z,1.26
2018-01-28T03:04:56.447Z,1.53
2018-01-28T03:07:23.962Z,1.73
2018-01-28T03:09:51.478Z,2.36
2018-01-28T03:12:19.008Z,2.15
2018-01-28T03:14:46.525Z,2.31
2018-01-28T03:17:14.056Z,2.68
2018-01-28T03:19:41.637Z,2.84
2018-01-28T03:22:09.162Z,2.98
2018-01-28T03:24:36.701Z,3.30
2018-01-28T03:27:04.215Z,3.58
2018-01-28T03:29:31.756Z,3.74
2018-01-28T03:31:59.277Z,3.58
2018-01-28T03:34:26.790Z,3.65
2018-01-28T03:36:54.295Z,3.69
2018-01-28T03:39:21.811Z,3.86
2018-01-28T03:41:49.350Z,4.08
2018-01-28T03:44:16.865Z,3.93
2018-01-28T03:46:44.427Z,3.91
2018-01-28T03:49:11.927Z,3.98
2018-01-28T03:51:39.452Z,3.90
2018-01-28T03:54:06.971Z,4.15
2018-01-28T03:56:34.482Z,4.13
2018-01-28T03:59:01.998Z,4.00
2018-01-28T04:01:29.513Z,4.17
2018-01-28T04:03:57.056Z,4.23
2018-01-28T04:06:24.572Z,4.61
2018-01-28T04:08:52.205Z,4.88
2018-01-28T04:11:19.726Z,4.89
2018-01-28T04:13:47.263Z,4.77
2018-01-28T04:16:14.814Z,4.99
2018-01-28T04:18:42.350Z,5.08
2018-01-28T04:21:09.886Z,5.04
2018-01-28T04:23:37.461Z,4.99
2018-01-28T04:26:04.986Z,4.98
2018-01-28T04:28:32.507Z,4.97
2018-01-28T04:31:00.031Z,5.23
2018-01-28T04:33:27.545Z,5.08
2018-01-28T04:35:55.565Z,5.08
2018-01-28T04:38:23.092Z,5.17
2018-01-28T04:40:50.606Z,5.22
2018-01-28T04:43:18.130Z,5.27
2018-01-28T04:45:45.646Z,5.28
2018-01-28T04:48:13.161Z,5.34
2018-01-28T04:50:40.685Z,5.39
2018-01-28T04:53:08.191Z,5.55
2018-01-28T04:55:35.702Z,5.55
2018-01-28T04:58:03.217Z,5.46
2018-01-28T05:00:45.637Z,5.58
2018-01-28T05:03:13.141Z,5.60
2018-01-28T05:05:40.663Z,5.73
2018-01-28T05:08:08.202Z,5.72
2018-01-28T05:10:35.711Z,5.73
2018-01-28T05:13:03.282Z,5.73
2018-01-28T05:15:30.796Z,5.90
2018-01-28T05:17:58.292Z,5.93
2018-01-28T05:20:25.811Z,6.15
2018-01-28T05:22:53.306Z,6.12
2018-01-28T05:25:20.822Z,6.06
2018-01-28T05:27:48.338Z,5.97
2018-01-28T05:30:15.862Z,6.06
2018-01-28T05:32:43.460Z,5.96
2018-01-28T05:35:10.967Z,5.99
2018-01-28T05:37:38.506Z,6.07
2018-01-28T05:40:05.994Z,6.10
2018-01-28T05:42:33.747Z,6.16
2018-01-28T05:45:01.363Z,6.47
2018-01-28T05:47:28.867Z,6.47
2018-01-28T05:49:56.428Z,6.43
2018-01-28T05:52:23.963Z,6.42
2018-01-28T05:54:51.468Z,6.55
2018-01-28T05:57:18.983Z,6.37
2018-01-28T05:59:46.513Z,6.24
2018-01-28T06:02:14.032Z,6.39
2018-01-28T06:04:41.545Z,6.42
2018-01-28T06:07:09.076Z,6.36
2018-01-28T06:09:36.592Z,6.38
2018-01-28T06:12:04.126Z,6.36
2018-01-28T06:14:31.656Z,6.32
2018-01-28T06:17:00.611Z,6.54
2018-01-28T06:19:28.259Z,6.59
2018-01-28T06:21:55.768Z,6.50
2018-01-28T06:24:23.277Z,6.61
2018-01-28T06:26:50.791Z,6.44
2018-01-28T06:29:18.452Z,6.50
2018-01-28T06:31:45.966Z,6.55
2018-01-28T06:34:13.484Z,6.41
2018-01-28T06:36:40.996Z,6.55
2018-01-28T06:39:08.507Z,6.57
2018-01-28T06:41:36.007Z,6.50
2018-01-28T06:44:03.516Z,6.49
2018-01-28T06:46:31.048Z,6.57
2018-01-28T06:48:58.600Z,6.62
2018-01-28T06:51:26.119Z,6.50
2018-01-28T06:53:53.644Z,6.49
2018-01-28T06:56:22.286Z,6.57
2018-01-28T06:58:49.826Z,6.65
2018-01-28T07:01:17.327Z,6.64
2018-01-28T07:03:44.863Z,6.68
2018-01-28T07:06:12.366Z,6.60
2018-01-28T07:08:39.898Z,6.56
2018-01-28T07:11:07.388Z,6.60
2018-01-28T07:13:34.919Z,6.61
2018-01-28T07:16:02.448Z,6.55
2018-01-28T07:18:29.963Z,6.73
2018-01-28T07:20:57.492Z,6.66
2018-01-28T07:23:25.012Z,6.77
2018-01-28T07:25:52.782Z,6.71
2018-01-28T07:28:20.321Z,6.75
2018-01-28T07:30:47.847Z,6.83
2018-01-28T07:33:15.351Z,7.00
2018-01-28T07:35:42.867Z,6.78
2018-01-28T07:38:10.411Z,6.90
2018-01-28T07:40:37.984Z,6.82
2018-01-28T07:43:05.543Z,6.89
2018-01-28T07:45:33.032Z,6.87
2018-01-28T07:48:00.550Z,6.87
2018-01-28T07:50:28.068Z,6.96
2018-01-28T07:52:55.599Z,6.90
2018-01-28T07:55:23.131Z,6.89
2018-01-28T07:57:50.742Z,6.90
2018-01-28T08:00:18.281Z,7.17
2018-01-28T08:02:45.809Z,7.15
2018-01-28T08:05:13.327Z,7.11
2018-01-28T08:07:40.873Z,7.10
2018-01-28T08:10:10.203Z,6.95
2018-01-28T08:12:38.207Z,6.94
2018-01-28T08:15:05.768Z,7.10
2018-01-28T08:17:33.291Z,7.06
2018-01-28T08:20:00.817Z,7.19
2018-01-28T08:22:28.363Z,7.20
2018-01-28T08:24:55.898Z,7.20
2018-01-28T08:30:35.904Z,7.31
2018-01-28T08:33:03.442Z,7.40
2018-01-28T08:35:30.987Z,7.38
2018-01-28T08:37:58.531Z,7.55
2018-01-28T08:40:26.063Z,7.48
2018-01-28T08:42:53.597Z,7.41
2018-01-28T08:45:21.238Z,7.44
2018-01-28T08:47:48.768Z,7.43
2018-01-28T08:50:16.286Z,7.48
2018-01-28T08:52:43.803Z,7.58
2018-01-28T08:55:11.404Z,7.56
2018-01-28T08:57:38.938Z,7.61
2018-01-28T09:00:06.653Z,7.40
2018-01-28T09:02:34.181Z,7.42
2018-01-28T09:05:01.683Z,7.42
2018-01-28T09:07:29.221Z,7.51
2018-01-28T09:09:56.773Z,7.56
2018-01-28T09:12:24.305Z,7.81
2018-01-28T09:14:51.840Z,7.80
2018-01-28T09:17:19.363Z,7.90
2018-01-28T09:19:46.894Z,7.69
2018-01-28T09:22:14.434Z,7.60
2018-01-28T09:24:41.953Z,7.83
2018-01-28T09:27:09.477Z,7.98
2018-01-28T09:29:37.238Z,8.16
2018-01-28T09:32:04.768Z,8.11
2018-01-28T09:34:32.506Z,8.28
2018-01-28T09:37:00.043Z,8.16
2018-01-28T09:39:27.584Z,8.15
2018-01-28T09:41:55.391Z,8.33
2018-01-28T09:44:22.897Z,8.29
2018-01-28T09:46:50.403Z,8.54
2018-01-28T09:49:17.938Z,8.51
2018-01-28T09:51:45.472Z,8.72
2018-01-28T09:54:12.994Z,8.95
2018-01-28T09:56:40.534Z,8.99
2018-01-28T09:59:08.079Z,9.15
2018-01-28T10:01:35.643Z,9.20
2018-01-28T10:04:03.234Z,9.02
2018-01-28T10:06:30.758Z,9.37
2018-01-28T10:08:58.314Z,9.37
2018-01-28T10:11:25.834Z,9.56
2018-01-28T10:13:53.343Z,9.53
2018-01-28T10:16:20.852Z,9.51
2018-01-28T10:18:48.372Z,9.66
2018-01-28T10:21:15.877Z,9.80
2018-01-28T10:23:43.398Z,10.20
2018-01-28T10:26:10.933Z,10.01
2018-01-28T10:28:38.458Z,9.23
2018-01-28T10:31:05.987Z,9.24
2018-01-28T10:33:33.548Z,9.27
2018-01-28T10:36:01.196Z,9.37
2018-01-28T10:40:56.149Z,9.04
2018-01-28T10:43:23.698Z,9.05
2018-01-28T10:45:51.208Z,9.01
2018-01-28T10:48:18.724Z,9.11
2018-01-28T10:50:46.254Z,9.09
2018-01-28T10:53:13.779Z,9.02
2018-01-28T10:55:41.297Z,9.05
2018-01-28T10:58:08.835Z,9.07
2018-01-28T11:00:36.898Z,9.13
2018-01-28T11:03:04.413Z,9.31
2018-01-28T11:05:31.948Z,9.43
2018-01-28T11:07:59.463Z,9.77
2018-01-28T11:10:27.187Z,9.78
2018-01-28T11:12:54.686Z,9.77
2018-01-28T11:15:22.347Z,9.93
2018-01-28T11:17:49.880Z,9.95
2018-01-28T11:20:17.404Z,9.93
2018-01-28T11:22:44.937Z,10.00
2018-01-28T11:25:12.464Z,9.94
2018-01-28T11:27:40.014Z,10.08
2018-01-28T11:30:07.549Z,10.20
2018-01-28T11:32:35.091Z,10.44
2018-01-28T11:35:02.648Z,10.64
2018-01-28T11:37:30.223Z,10.68
2018-01-28T11:39:57.762Z,11.00
2018-01-28T11:42:25.302Z,10.77
2018-01-28T11:44:52.848Z,11.01
2018-01-28T11:47:20.383Z,11.07
2018-01-28T11:49:47.913Z,11.28
2018-01-28T11:52:15.463Z,11.33
2018-01-28T11:54:42.982Z,10.90
2018-01-28T11:57:10.497Z,10.43
2018-01-28T11:59:38.030Z,10.72
2018-01-28T12:02:05.543Z,10.56
2018-01-28T12:04:33.072Z,10.40
2018-01-28T12:07:00.594Z,10.16
2018-01-28T12:09:28.132Z,10.36
2018-01-28T12:11:55.653Z,10.47
2018-01-28T12:14:23.202Z,10.38
2018-01-28T12:16:50.735Z,10.56
2018-01-28T12:19:18.262Z,10.66
2018-01-28T12:21:45.793Z,10.76
2018-01-28T12:24:13.327Z,10.57
2018-01-28T12:26:40.898Z,10.41
2018-01-28T12:29:08.451Z,10.26
2018-01-28T12:31:36.014Z,10.78
2018-01-28T12:34:03.778Z,10.75
2018-01-28T12:36:31.347Z,10.90
2018-01-28T12:38:58.903Z,10.96
2018-01-28T12:41:26.509Z,10.77
2018-01-28T12:43:54.070Z,10.84
2018-01-28T12:46:21.604Z,10.85
2018-01-28T12:48:49.148Z,10.84
2018-01-28T12:51:16.684Z,10.89
2018-01-28T12:53:44.267Z,11.03
2018-01-28T12:56:11.822Z,10.98
2018-01-28T12:58:39.355Z,11.35
2018-01-28T13:01:06.908Z,11.61
2018-01-28T13:03:34.468Z,11.59
2018-01-28T13:06:02.009Z,11.19
2018-01-28T13:08:29.563Z,11.15
2018-01-28T13:10:57.101Z,11.40
2018-01-28T13:13:24.644Z,11.50
2018-01-28T13:15:52.166Z,11.76
2018-01-28T13:18:19.724Z,11.73
2018-01-28T13:20:47.294Z,11.46
2018-01-28T13:23:14.822Z,11.28
2018-01-28T13:25:42.437Z,11.60
2018-01-28T13:28:10.086Z,11.57
2018-01-28T13:30:37.629Z,11.01
2018-01-28T13:33:05.184Z,10.95
2018-01-28T13:35:32.728Z,10.84
2018-01-28T13:38:00.264Z,10.71
2018-01-28T13:40:27.789Z,10.58
2018-01-28T13:42:55.302Z,10.47
2018-01-28T13:45:22.854Z,10.31
2018-01-28T13:47:50.372Z,10.48
2018-01-28T13:50:17.898Z,10.65
2018-01-28T13:52:45.522Z,10.91
2018-01-28T13:55:13.062Z,10.92
2018-01-28T13:57:40.617Z,10.91
2018-01-28T14:00:08.282Z,10.69
2018-01-28T14:02:35.799Z,10.67
2018-01-28T14:05:03.348Z,10.94
2018-01-28T14:07:30.922Z,11.34
2018-01-28T14:09:58.461Z,11.18
2018-01-28T14:12:25.980Z,11.61
2018-01-28T14:14:53.534Z,11.12
2018-01-28T14:17:21.082Z,10.96
2018-01-28T14:19:48.584Z,11.06
2018-01-28T14:22:16.139Z,10.85
2018-01-28T14:24:43.687Z,11.00
2018-01-28T14:27:11.603Z,10.92
2018-01-28T14:29:39.128Z,10.76
2018-01-28T14:32:06.780Z,10.79
2018-01-28T14:34:34.323Z,11.10
2018-01-28T14:37:01.853Z,10.81
2018-01-28T14:39:29.404Z,10.93
2018-01-28T14:41:56.949Z,10.91
2018-01-28T14:44:24.490Z,10.81
2018-01-28T14:46:52.144Z,10.60
2018-01-28T14:49:19.850Z,10.44
2018-01-28T14:51:47.416Z,10.40
2018-01-28T14:54:14.962Z,10.31
2018-01-28T14:56:42.574Z,10.38
2018-01-28T14:59:10.132Z,10.45
2018-01-28T15:01:37.744Z,10.40
2018-01-28T15:04:05.280Z,10.48
2018-01-28T15:06:32.913Z,10.41
2018-01-28T15:09:00.443Z,10.43
2018-01-28T15:11:28.178Z,10.34
2018-01-28T15:13:55.705Z,10.45
2018-01-28T15:16:23.259Z,10.54
2018-01-28T15:18:50.875Z,10.41
2018-01-28T15:21:18.552Z,10.20
2018-01-28T15:23:46.084Z,10.25
2018-01-28T15:26:13.630Z,10.21
2018-01-28T15:28:41.200Z,10.08
2018-01-28T15:31:08.786Z,10.01
2018-01-28T15:33:36.337Z,10.05
2018-01-28T15:36:03.883Z,9.97
2018-01-28T15:38:31.431Z,9.95
2018-01-28T15:40:59.737Z,9.91
2018-01-28T15:43:27.269Z,10.04
2018-01-28T15:45:54.823Z,10.03
2018-01-28T15:48:22.494Z,10.08
2018-01-28T15:50:50.048Z,9.88
2018-01-28T15:53:17.629Z,9.80
2018-01-28T15:55:45.160Z,9.85
2018-01-28T15:58:12.838Z,10.03
2018-01-28T16:00:40.409Z,9.88
2018-01-28T16:03:07.957Z,9.92
2018-01-28T16:05:35.524Z,9.89
2018-01-28T16:08:03.088Z,9.83
2018-01-28T16:10:30.676Z,10.00
2018-01-28T16:12:58.218Z,9.91
2018-01-28T16:15:25.778Z,10.14
2018-01-28T16:17:53.359Z,9.98
2018-01-28T16:20:20.883Z,9.89
2018-01-28T16:22:48.582Z,9.87
2018-01-28T16:25:16.134Z,9.88
2018-01-28T16:27:43.660Z,9.87
2018-01-28T16:30:38.188Z,9.79
2018-01-28T16:33:06.989Z,9.79
2018-01-28T16:35:34.713Z,9.85
2018-01-28T16:38:02.415Z,9.86
2018-01-28T16:40:30.058Z,9.69
2018-01-28T16:42:57.794Z,9.61
2018-01-28T16:45:26.178Z,9.84
2018-01-28T16:47:53.836Z,9.86
2018-01-28T16:50:21.435Z,9.81
2018-01-28T16:52:49.062Z,9.74
2018-01-28T16:55:16.738Z,9.82
2018-01-28T16:57:44.324Z,9.72
2018-01-28T17:00:12.000Z,9.87
2018-01-28T17:02:39.558Z,9.92
2018-01-28T17:05:07.328Z,9.91
2018-01-28T17:07:34.920Z,9.90
2018-01-28T17:10:02.488Z,9.74
2018-01-28T17:12:30.028Z,9.92
2018-01-28T17:14:57.585Z,9.80
2018-01-28T17:17:25.347Z,9.66
2018-01-28T17:19:53.010Z,9.67
2018-01-28T17:22:21.145Z,9.62
2018-01-28T17:24:49.010Z,9.51
2018-01-28T17:27:16.792Z,9.51
2018-01-28T17:29:44.403Z,9.65
2018-01-28T17:32:12.190Z,9.61
2018-01-28T17:34:39.713Z,9.69
2018-01-28T17:37:07.601Z,9.71
2018-01-28T17:39:35.245Z,9.61
2018-01-28T17:42:02.788Z,9.62
2018-01-28T17:44:30.374Z,9.57
2018-01-28T17:46:58.150Z,9.74
2018-01-28T17:49:25.683Z,9.83
2018-01-28T17:51:53.254Z,9.68
2018-01-28T17:54:20.915Z,9.53
2018-01-28T17:56:48.685Z,9.51
2018-01-28T17:59:16.786Z,9.54
2018-01-28T18:01:44.594Z,9.59
2018-01-28T18:04:12.320Z,9.47
2018-01-28T18:06:39.934Z,9.58
2018-01-28T18:09:07.853Z,9.64
2018-01-28T18:11:35.503Z,9.55
2018-01-28T18:14:03.374Z,9.58
2018-01-28T18:16:30.967Z,9.62
2018-01-28T18:18:58.807Z,9.56
2018-01-28T18:21:26.415Z,9.63
2018-01-28T18:23:54.095Z,9.49
2018-01-28T18:26:21.753Z,9.64
2018-01-28T18:28:49.698Z,9.53
2018-01-28T18:31:17.724Z,9.50
2018-01-28T18:33:45.266Z,9.39
2018-01-28T18:36:12.830Z,9.44
2018-01-28T18:38:40.603Z,9.40
2018-01-28T18:41:08.215Z,9.41
2018-01-28T18:43:35.753Z,9.48
2018-01-28T18:46:03.606Z,9.51
2018-01-28T18:48:31.253Z,9.47
2018-01-28T18:50:58.864Z,9.47
2018-01-28T18:53:26.713Z,9.57
2018-01-28T18:55:54.288Z,9.62
2018-01-28T18:58:21.985Z,9.40
2018-01-28T19:00:49.727Z,9.32
2018-01-28T19:03:17.310Z,9.51
2018-01-28T19:05:44.991Z,9.49
2018-01-28T19:08:12.618Z,9.33
2018-01-28T19:10:40.484Z,9.24
2018-01-28T19:13:08.044Z,9.22
2018-01-28T19:15:35.719Z,9.30
2018-01-28T19:18:03.290Z,9.30
2018-01-28T19:20:30.855Z,9.24
2018-01-28T19:22:58.509Z,9.35
2018-01-28T19:25:26.184Z,9.23
2018-01-28T19:27:53.963Z,9.03
2018-01-28T19:30:21.624Z,8.92
2018-01-28T19:32:49.261Z,8.80
2018-01-28T19:35:16.833Z,8.74
2018-01-28T19:37:44.480Z,8.59
2018-01-28T19:40:12.003Z,8.52
2018-01-28T19:42:39.577Z,8.42
2018-01-28T19:45:07.273Z,8.35
2018-01-28T19:47:34.837Z,8.42
2018-01-28T19:50:02.395Z,8.12
2018-01-28T19:52:30.054Z,7.98
2018-01-28T19:54:57.743Z,8.01
2018-01-28T19:57:25.584Z,7.84
2018-01-28T19:59:53.143Z,7.76
2018-01-28T20:02:20.775Z,7.53
2018-01-28T20:04:48.463Z,7.39
2018-01-28T20:07:16.075Z,7.21
2018-01-28T20:09:43.623Z,7.28
2018-01-28T20:12:11.160Z,7.32
2018-01-28T20:14:38.688Z,7.27
2018-01-28T20:17:06.460Z,7.17
2018-01-28T20:19:34.019Z,7.04
2018-01-28T20:22:01.573Z,6.78
2018-01-28T20:24:29.149Z,6.86
2018-01-28T20:26:56.684Z,6.73
2018-01-28T20:29:24.380Z,6.83
2018-01-28T20:31:51.920Z,7.04
2018-01-28T20:34:19.629Z,7.25
2018-01-28T20:36:47.188Z,7.21
2018-01-28T20:39:14.924Z,7.32
2018-01-28T20:41:42.655Z,7.48
2018-01-28T20:44:10.418Z,7.74
2018-01-28T20:46:37.934Z,7.85
2018-01-28T20:49:05.509Z,7.93
2018-01-28T20:51:33.049Z,8.07
2018-01-28T20:54:00.599Z,8.22
2018-01-28T20:56:28.157Z,8.38
2018-01-28T20:58:55.719Z,8.38
2018-01-28T21:01:23.328Z,8.50
2018-01-28T21:03:51.784Z,8.57
2018-01-28T21:06:19.318Z,8.68
2018-01-28T21:08:46.845Z,8.63
2018-01-28T21:11:14.491Z,8.77
2018-01-28T21:13:42.029Z,8.81
2018-01-28T21:16:09.624Z,8.78
2018-01-28T21:18:37.150Z,8.88
2018-01-28T21:21:04.738Z,8.95
2018-01-28T21:23:32.338Z,8.88
2018-01-28T21:25:59.864Z,8.91
2018-01-28T21:28:27.403Z,8.77
2018-01-28T21:30:55.238Z,8.73
2018-01-28T21:33:22.764Z,8.92
2018-01-28T21:35:50.404Z,8.87
2018-01-28T21:38:17.985Z,8.92
2018-01-28T21:40:45.542Z,8.81
2018-01-28T21:43:13.165Z,8.94
2018-01-28T21:45:40.870Z,8.87
2018-01-28T21:48:08.481Z,8.94
2018-01-28T21:50:35.999Z,8.87
2018-01-28T21:53:03.580Z,8.87
2018-01-28T21:55:31.225Z,8.88
2018-01-28T21:57:59.656Z,8.83
2018-01-28T22:00:27.200Z,8.92
2018-01-28T22:02:54.828Z,8.75
2018-01-28T22:05:22.434Z,8.73
2018-01-28T22:07:50.213Z,8.78
2018-01-28T22:10:17.868Z,8.77
2018-01-28T22:12:45.404Z,8.65
2018-01-28T22:15:12.981Z,8.64
2018-01-28T22:17:40.507Z,8.67
2018-01-28T22:20:08.060Z,8.67
2018-01-28T22:22:35.865Z,8.73
2018-01-28T22:25:03.479Z,8.66
2018-01-28T22:27:31.144Z,8.59
2018-01-28T22:29:58.895Z,8.42
2018-01-28T22:32:26.688Z,8.36
2018-01-28T22:34:54.240Z,8.32
2018-01-28T22:37:21.909Z,8.16
2018-01-28T22:39:49.455Z,8.13
2018-01-28T22:42:17.049Z,8.13
2018-01-28T22:44:44.569Z,8.01
2018-01-28T22:47:12.155Z,7.80
2018-01-28T22:49:39.680Z,7.64
2018-01-28T22:52:07.323Z,7.42
2018-01-28T22:54:34.965Z,7.32
2018-01-28T22:57:02.715Z,7.33
2018-01-28T22:59:30.251Z,7.27
2018-01-28T23:01:57.819Z,7.33
2018-01-28T23:04:25.410Z,7.28
2018-01-28T23:06:53.035Z,7.16
2018-01-28T23:09:27.683Z,7.31
2018-01-28T23:11:55.348Z,7.03
2018-01-28T23:14:22.880Z,7.01
2018-01-28T23:16:50.402Z,6.94
2018-01-28T23:19:18.135Z,6.86
2018-01-28T23:21:46.039Z,6.93
2018-01-28T23:24:13.658Z,6.74
2018-01-28T23:26:41.160Z,6.77
2018-01-28T23:29:08.756Z,6.56
2018-01-28T23:31:36.394Z,6.58
2018-01-28T23:34:04.074Z,6.42
2018-01-28T23:36:31.628Z,6.42
2018-01-28T23:38:59.139Z,6.63
2018-01-28T23:41:26.694Z,6.61
2018-01-28T23:43:54.231Z,6.48
2018-01-28T23:46:21.742Z,6.51
2018-01-28T23:48:49.258Z,6.55
2018-01-28T23:51:16.853Z,6.60
2018-01-28T23:53:44.365Z,6.64
2018-01-28T23:56:11.953Z,6.46
2018-01-28T23:58:39.504Z,6.33
